sensor_id;sensor_type;location;lat;lon;timestamp;P1;durP1;ratioP1;P2;durP2;ratioP2
40164;SDS011;25882;51.120;17.248;2022-12-29T00:00:03;8.52;;;3.13;;
40164;SDS011;25882;51.120;17.248;2022-12-29T00:02:31;5.90;;;2.75;;
40164;SDS011;25882;51.120;17.248;2022-12-29T00:04:59;8.63;;;2.67;;
40164;SDS011;25882;51.120;17.248;2022-12-29T00:07:25;6.93;;;2.60;;
40164;SDS011;25882;51.120;17.248;2022-12-29T00:09:52;5.45;;;2.75;;
40164;SDS011;25882;51.120;17.248;2022-12-29T00:12:18;5.28;;;2.22;;
40164;SDS011;25882;51.120;17.248;2022-12-29T00:14:45;5.80;;;2.03;;
40164;SDS011;25882;51.120;17.248;2022-12-29T00:17:30;7.35;;;2.78;;
40164;SDS011;25882;51.120;17.248;2022-12-29T00:19:56;4.10;;;2.05;;
40164;SDS011;25882;51.120;17.248;2022-12-29T00:22:43;5.47;;;2.10;;
40164;SDS011;25882;51.120;17.248;2022-12-29T00:25:45;7.10;;;2.45;;
40164;SDS011;25882;51.120;17.248;2022-12-29T00:28:30;6.82;;;2.53;;
40164;SDS011;25882;51.120;17.248;2022-12-29T00:31:15;4.78;;;2.22;;
40164;SDS011;25882;51.120;17.248;2022-12-29T00:34:00;4.50;;;2.00;;
40164;SDS011;25882;51.120;17.248;2022-12-29T00:36:45;3.95;;;2.58;;
40164;SDS011;25882;51.120;17.248;2022-12-29T00:39:14;3.08;;;1.90;;
40164;SDS011;25882;51.120;17.248;2022-12-29T00:42:02;4.85;;;2.22;;
40164;SDS011;25882;51.120;17.248;2022-12-29T00:44:48;5.63;;;2.30;;
40164;SDS011;25882;51.120;17.248;2022-12-29T00:47:14;5.13;;;2.58;;
40164;SDS011;25882;51.120;17.248;2022-12-29T00:49:41;4.82;;;2.55;;
40164;SDS011;25882;51.120;17.248;2022-12-29T00:52:08;5.13;;;2.17;;
40164;SDS011;25882;51.120;17.248;2022-12-29T00:54:38;5.03;;;2.60;;
40164;SDS011;25882;51.120;17.248;2022-12-29T00:57:06;4.38;;;2.63;;
40164;SDS011;25882;51.120;17.248;2022-12-29T00:59:34;4.30;;;2.92;;
40164;SDS011;25882;51.120;17.248;2022-12-29T01:02:00;3.20;;;1.60;;
40164;SDS011;25882;51.120;17.248;2022-12-29T01:04:27;6.35;;;2.83;;
40164;SDS011;25882;51.120;17.248;2022-12-29T01:06:53;6.43;;;2.45;;
40164;SDS011;25882;51.120;17.248;2022-12-29T01:09:20;7.07;;;2.20;;
40164;SDS011;25882;51.120;17.248;2022-12-29T01:12:07;3.40;;;2.13;;
40164;SDS011;25882;51.120;17.248;2022-12-29T01:14:34;3.70;;;2.10;;
40164;SDS011;25882;51.120;17.248;2022-12-29T01:17:00;3.67;;;1.95;;
40164;SDS011;25882;51.120;17.248;2022-12-29T01:19:27;5.80;;;2.15;;
40164;SDS011;25882;51.120;17.248;2022-12-29T01:21:53;8.05;;;2.47;;
40164;SDS011;25882;51.120;17.248;2022-12-29T01:24:20;4.40;;;2.03;;
40164;SDS011;25882;51.120;17.248;2022-12-29T01:26:46;5.05;;;2.33;;
40164;SDS011;25882;51.120;17.248;2022-12-29T01:29:15;4.47;;;2.45;;
40164;SDS011;25882;51.120;17.248;2022-12-29T01:31:42;4.13;;;1.98;;
40164;SDS011;25882;51.120;17.248;2022-12-29T01:34:08;3.65;;;2.08;;
40164;SDS011;25882;51.120;17.248;2022-12-29T01:36:34;4.30;;;2.65;;
40164;SDS011;25882;51.120;17.248;2022-12-29T01:39:01;5.18;;;2.53;;
40164;SDS011;25882;51.120;17.248;2022-12-29T01:41:28;7.53;;;2.35;;
40164;SDS011;25882;51.120;17.248;2022-12-29T01:43:56;6.60;;;2.83;;
40164;SDS011;25882;51.120;17.248;2022-12-29T01:46:27;5.07;;;2.50;;
40164;SDS011;25882;51.120;17.248;2022-12-29T01:48:57;5.20;;;2.38;;
40164;SDS011;25882;51.120;17.248;2022-12-29T01:51:29;4.93;;;2.75;;
40164;SDS011;25882;51.120;17.248;2022-12-29T01:53:57;4.40;;;2.38;;
40164;SDS011;25882;51.120;17.248;2022-12-29T01:56:26;4.50;;;2.65;;
40164;SDS011;25882;51.120;17.248;2022-12-29T01:58:54;3.40;;;2.08;;
40164;SDS011;25882;51.120;17.248;2022-12-29T02:01:23;5.53;;;2.45;;
40164;SDS011;25882;51.120;17.248;2022-12-29T02:03:51;5.28;;;2.60;;
40164;SDS011;25882;51.120;17.248;2022-12-29T02:06:19;4.97;;;2.33;;
40164;SDS011;25882;51.120;17.248;2022-12-29T02:08:49;5.57;;;2.00;;
40164;SDS011;25882;51.120;17.248;2022-12-29T02:13:48;3.78;;;2.17;;
40164;SDS011;25882;51.120;17.248;2022-12-29T02:19:07;4.00;;;1.73;;
40164;SDS011;25882;51.120;17.248;2022-12-29T02:21:48;4.63;;;2.83;;
40164;SDS011;25882;51.120;17.248;2022-12-29T02:24:42;3.95;;;2.28;;
40164;SDS011;25882;51.120;17.248;2022-12-29T02:27:34;5.93;;;2.35;;
40164;SDS011;25882;51.120;17.248;2022-12-29T02:30:08;5.18;;;1.83;;
40164;SDS011;25882;51.120;17.248;2022-12-29T02:32:44;4.18;;;2.45;;
40164;SDS011;25882;51.120;17.248;2022-12-29T02:35:19;5.57;;;2.45;;
40164;SDS011;25882;51.120;17.248;2022-12-29T02:37:53;6.30;;;2.35;;
40164;SDS011;25882;51.120;17.248;2022-12-29T02:40:27;4.45;;;2.42;;
40164;SDS011;25882;51.120;17.248;2022-12-29T02:45:26;5.72;;;2.47;;
40164;SDS011;25882;51.120;17.248;2022-12-29T02:47:59;4.93;;;2.10;;
40164;SDS011;25882;51.120;17.248;2022-12-29T02:50:31;3.70;;;2.00;;
40164;SDS011;25882;51.120;17.248;2022-12-29T02:52:59;4.78;;;2.33;;
40164;SDS011;25882;51.120;17.248;2022-12-29T02:55:28;10.27;;;2.72;;
40164;SDS011;25882;51.120;17.248;2022-12-29T03:03:19;3.42;;;2.05;;
40164;SDS011;25882;51.120;17.248;2022-12-29T03:05:58;4.07;;;2.15;;
40164;SDS011;25882;51.120;17.248;2022-12-29T03:08:32;3.15;;;1.98;;
40164;SDS011;25882;51.120;17.248;2022-12-29T03:11:06;5.15;;;2.35;;
40164;SDS011;25882;51.120;17.248;2022-12-29T03:13:52;5.03;;;2.40;;
40164;SDS011;25882;51.120;17.248;2022-12-29T03:16:43;5.50;;;2.50;;
40164;SDS011;25882;51.120;17.248;2022-12-29T03:19:14;4.78;;;2.45;;
40164;SDS011;25882;51.120;17.248;2022-12-29T03:21:44;4.40;;;2.28;;
40164;SDS011;25882;51.120;17.248;2022-12-29T03:24:31;4.70;;;2.70;;
40164;SDS011;25882;51.120;17.248;2022-12-29T03:27:01;5.70;;;2.40;;
40164;SDS011;25882;51.120;17.248;2022-12-29T03:29:29;3.85;;;2.33;;
40164;SDS011;25882;51.120;17.248;2022-12-29T03:31:58;2.75;;;2.03;;
40164;SDS011;25882;51.120;17.248;2022-12-29T03:34:26;6.13;;;2.70;;
40164;SDS011;25882;51.120;17.248;2022-12-29T03:36:54;4.30;;;2.50;;
40164;SDS011;25882;51.120;17.248;2022-12-29T03:39:24;5.35;;;2.63;;
40164;SDS011;25882;51.120;17.248;2022-12-29T03:41:52;4.65;;;2.75;;
40164;SDS011;25882;51.120;17.248;2022-12-29T03:44:30;5.93;;;2.75;;
40164;SDS011;25882;51.120;17.248;2022-12-29T03:46:57;6.97;;;2.42;;
40164;SDS011;25882;51.120;17.248;2022-12-29T03:49:23;3.45;;;2.47;;
40164;SDS011;25882;51.120;17.248;2022-12-29T03:51:51;5.65;;;2.47;;
40164;SDS011;25882;51.120;17.248;2022-12-29T03:54:17;6.25;;;3.35;;
40164;SDS011;25882;51.120;17.248;2022-12-29T03:56:44;7.63;;;3.13;;
40164;SDS011;25882;51.120;17.248;2022-12-29T03:59:10;4.80;;;2.50;;
40164;SDS011;25882;51.120;17.248;2022-12-29T04:01:36;4.72;;;2.40;;
40164;SDS011;25882;51.120;17.248;2022-12-29T04:04:03;3.83;;;2.47;;
40164;SDS011;25882;51.120;17.248;2022-12-29T04:06:30;3.80;;;2.60;;
40164;SDS011;25882;51.120;17.248;2022-12-29T04:08:57;5.82;;;2.25;;
40164;SDS011;25882;51.120;17.248;2022-12-29T04:11:24;3.85;;;2.15;;
40164;SDS011;25882;51.120;17.248;2022-12-29T04:13:50;4.25;;;2.55;;
40164;SDS011;25882;51.120;17.248;2022-12-29T04:16:17;4.32;;;2.03;;
40164;SDS011;25882;51.120;17.248;2022-12-29T04:18:43;5.53;;;2.70;;
40164;SDS011;25882;51.120;17.248;2022-12-29T04:21:09;4.95;;;2.28;;
40164;SDS011;25882;51.120;17.248;2022-12-29T04:23:36;5.53;;;2.60;;
40164;SDS011;25882;51.120;17.248;2022-12-29T04:26:06;4.05;;;2.38;;
40164;SDS011;25882;51.120;17.248;2022-12-29T04:28:33;4.80;;;2.70;;
40164;SDS011;25882;51.120;17.248;2022-12-29T04:30:59;5.22;;;2.72;;
40164;SDS011;25882;51.120;17.248;2022-12-29T04:33:25;5.75;;;2.55;;
40164;SDS011;25882;51.120;17.248;2022-12-29T04:35:52;6.53;;;2.50;;
40164;SDS011;25882;51.120;17.248;2022-12-29T04:38:19;4.13;;;2.20;;
40164;SDS011;25882;51.120;17.248;2022-12-29T04:40:46;4.82;;;2.30;;
40164;SDS011;25882;51.120;17.248;2022-12-29T04:43:14;4.45;;;2.63;;
40164;SDS011;25882;51.120;17.248;2022-12-29T04:45:42;3.83;;;2.47;;
40164;SDS011;25882;51.120;17.248;2022-12-29T04:48:08;4.57;;;2.70;;
40164;SDS011;25882;51.120;17.248;2022-12-29T04:50:35;6.75;;;3.63;;
40164;SDS011;25882;51.120;17.248;2022-12-29T04:53:01;6.20;;;2.70;;
40164;SDS011;25882;51.120;17.248;2022-12-29T04:55:30;5.70;;;3.55;;
40164;SDS011;25882;51.120;17.248;2022-12-29T04:57:56;3.75;;;2.28;;
40164;SDS011;25882;51.120;17.248;2022-12-29T05:00:25;5.80;;;2.35;;
40164;SDS011;25882;51.120;17.248;2022-12-29T05:02:51;4.72;;;3.17;;
40164;SDS011;25882;51.120;17.248;2022-12-29T05:05:17;4.57;;;2.63;;
40164;SDS011;25882;51.120;17.248;2022-12-29T05:07:44;5.82;;;2.95;;
40164;SDS011;25882;51.120;17.248;2022-12-29T05:10:10;5.68;;;2.72;;
40164;SDS011;25882;51.120;17.248;2022-12-29T05:12:37;6.10;;;3.20;;
40164;SDS011;25882;51.120;17.248;2022-12-29T05:15:04;5.97;;;2.78;;
40164;SDS011;25882;51.120;17.248;2022-12-29T05:17:33;5.35;;;2.97;;
40164;SDS011;25882;51.120;17.248;2022-12-29T05:19:59;5.57;;;3.10;;
40164;SDS011;25882;51.120;17.248;2022-12-29T05:22:26;9.77;;;3.65;;
40164;SDS011;25882;51.120;17.248;2022-12-29T05:24:52;4.05;;;2.72;;
40164;SDS011;25882;51.120;17.248;2022-12-29T05:27:18;5.60;;;3.30;;
40164;SDS011;25882;51.120;17.248;2022-12-29T05:29:45;6.60;;;3.58;;
40164;SDS011;25882;51.120;17.248;2022-12-29T05:32:11;6.65;;;3.08;;
40164;SDS011;25882;51.120;17.248;2022-12-29T05:34:39;4.40;;;2.88;;
40164;SDS011;25882;51.120;17.248;2022-12-29T05:37:05;3.35;;;2.10;;
40164;SDS011;25882;51.120;17.248;2022-12-29T05:39:32;4.95;;;2.50;;
40164;SDS011;25882;51.120;17.248;2022-12-29T05:41:58;4.97;;;3.03;;
40164;SDS011;25882;51.120;17.248;2022-12-29T05:44:25;4.85;;;2.63;;
40164;SDS011;25882;51.120;17.248;2022-12-29T05:46:51;5.10;;;2.63;;
40164;SDS011;25882;51.120;17.248;2022-12-29T05:49:18;7.00;;;2.95;;
40164;SDS011;25882;51.120;17.248;2022-12-29T05:51:45;6.05;;;3.03;;
40164;SDS011;25882;51.120;17.248;2022-12-29T05:54:12;4.88;;;2.85;;
40164;SDS011;25882;51.120;17.248;2022-12-29T05:56:39;5.32;;;3.28;;
40164;SDS011;25882;51.120;17.248;2022-12-29T05:59:05;5.20;;;2.92;;
40164;SDS011;25882;51.120;17.248;2022-12-29T06:01:32;5.72;;;3.42;;
40164;SDS011;25882;51.120;17.248;2022-12-29T06:04:00;5.57;;;2.95;;
40164;SDS011;25882;51.120;17.248;2022-12-29T06:06:26;5.68;;;2.92;;
40164;SDS011;25882;51.120;17.248;2022-12-29T06:08:54;4.40;;;2.92;;
40164;SDS011;25882;51.120;17.248;2022-12-29T06:11:20;8.48;;;2.95;;
40164;SDS011;25882;51.120;17.248;2022-12-29T06:13:46;3.92;;;2.70;;
40164;SDS011;25882;51.120;17.248;2022-12-29T06:16:13;5.45;;;2.78;;
40164;SDS011;25882;51.120;17.248;2022-12-29T06:18:39;5.53;;;3.15;;
40164;SDS011;25882;51.120;17.248;2022-12-29T06:21:05;5.05;;;3.38;;
40164;SDS011;25882;51.120;17.248;2022-12-29T06:23:32;5.97;;;3.53;;
40164;SDS011;25882;51.120;17.248;2022-12-29T06:25:59;5.07;;;3.15;;
40164;SDS011;25882;51.120;17.248;2022-12-29T06:28:26;5.05;;;3.15;;
40164;SDS011;25882;51.120;17.248;2022-12-29T06:30:52;5.40;;;3.03;;
40164;SDS011;25882;51.120;17.248;2022-12-29T06:33:19;6.43;;;3.63;;
40164;SDS011;25882;51.120;17.248;2022-12-29T06:35:46;6.05;;;3.33;;
40164;SDS011;25882;51.120;17.248;2022-12-29T06:38:12;6.05;;;3.10;;
40164;SDS011;25882;51.120;17.248;2022-12-29T06:40:38;5.70;;;3.40;;
40164;SDS011;25882;51.120;17.248;2022-12-29T06:43:08;6.30;;;3.28;;
40164;SDS011;25882;51.120;17.248;2022-12-29T06:45:35;6.57;;;3.15;;
40164;SDS011;25882;51.120;17.248;2022-12-29T06:48:04;5.40;;;3.38;;
40164;SDS011;25882;51.120;17.248;2022-12-29T06:50:30;5.57;;;3.22;;
40164;SDS011;25882;51.120;17.248;2022-12-29T06:52:56;5.88;;;3.42;;
40164;SDS011;25882;51.120;17.248;2022-12-29T06:55:23;6.82;;;3.40;;
40164;SDS011;25882;51.120;17.248;2022-12-29T06:57:49;7.00;;;3.63;;
40164;SDS011;25882;51.120;17.248;2022-12-29T07:00:17;5.68;;;3.53;;
40164;SDS011;25882;51.120;17.248;2022-12-29T07:02:44;6.57;;;3.63;;
40164;SDS011;25882;51.120;17.248;2022-12-29T07:05:10;14.70;;;3.88;;
40164;SDS011;25882;51.120;17.248;2022-12-29T07:07:37;5.65;;;3.38;;
40164;SDS011;25882;51.120;17.248;2022-12-29T07:10:03;6.28;;;3.63;;
40164;SDS011;25882;51.120;17.248;2022-12-29T07:12:30;7.35;;;3.45;;
40164;SDS011;25882;51.120;17.248;2022-12-29T07:14:56;5.82;;;3.47;;
40164;SDS011;25882;51.120;17.248;2022-12-29T07:17:24;5.53;;;3.35;;
40164;SDS011;25882;51.120;17.248;2022-12-29T07:19:50;6.28;;;3.35;;
40164;SDS011;25882;51.120;17.248;2022-12-29T07:22:17;6.75;;;3.47;;
40164;SDS011;25882;51.120;17.248;2022-12-29T07:24:43;5.03;;;2.67;;
40164;SDS011;25882;51.120;17.248;2022-12-29T07:27:10;6.60;;;3.47;;
40164;SDS011;25882;51.120;17.248;2022-12-29T07:29:36;6.43;;;3.90;;
40164;SDS011;25882;51.120;17.248;2022-12-29T07:32:03;5.82;;;3.60;;
40164;SDS011;25882;51.120;17.248;2022-12-29T07:34:31;6.43;;;3.55;;
40164;SDS011;25882;51.120;17.248;2022-12-29T07:36:57;7.68;;;4.13;;
40164;SDS011;25882;51.120;17.248;2022-12-29T07:39:23;9.00;;;5.70;;
40164;SDS011;25882;51.120;17.248;2022-12-29T07:41:51;11.60;;;5.65;;
40164;SDS011;25882;51.120;17.248;2022-12-29T07:44:17;9.52;;;4.68;;
40164;SDS011;25882;51.120;17.248;2022-12-29T07:46:44;11.43;;;3.72;;
40164;SDS011;25882;51.120;17.248;2022-12-29T07:49:10;11.48;;;4.70;;
40164;SDS011;25882;51.120;17.248;2022-12-29T07:51:38;7.93;;;4.68;;
40164;SDS011;25882;51.120;17.248;2022-12-29T07:54:04;9.65;;;4.53;;
40164;SDS011;25882;51.120;17.248;2022-12-29T07:56:30;8.13;;;4.30;;
40164;SDS011;25882;51.120;17.248;2022-12-29T07:58:57;7.07;;;4.15;;
40164;SDS011;25882;51.120;17.248;2022-12-29T08:01:23;8.05;;;4.43;;
40164;SDS011;25882;51.120;17.248;2022-12-29T08:03:50;6.63;;;3.55;;
40164;SDS011;25882;51.120;17.248;2022-12-29T08:06:16;7.38;;;4.20;;
40164;SDS011;25882;51.120;17.248;2022-12-29T08:08:45;8.40;;;3.88;;
40164;SDS011;25882;51.120;17.248;2022-12-29T08:11:11;11.63;;;4.65;;
40164;SDS011;25882;51.120;17.248;2022-12-29T08:13:38;5.13;;;3.25;;
40164;SDS011;25882;51.120;17.248;2022-12-29T08:16:05;6.20;;;3.55;;
40164;SDS011;25882;51.120;17.248;2022-12-29T08:18:31;8.93;;;4.47;;
40164;SDS011;25882;51.120;17.248;2022-12-29T08:21:00;6.35;;;3.70;;
40164;SDS011;25882;51.120;17.248;2022-12-29T08:23:27;6.70;;;3.05;;
40164;SDS011;25882;51.120;17.248;2022-12-29T08:25:58;7.18;;;4.03;;
40164;SDS011;25882;51.120;17.248;2022-12-29T08:28:24;7.93;;;3.90;;
40164;SDS011;25882;51.120;17.248;2022-12-29T08:30:50;6.53;;;3.85;;
40164;SDS011;25882;51.120;17.248;2022-12-29T08:33:17;7.38;;;3.60;;
40164;SDS011;25882;51.120;17.248;2022-12-29T08:35:44;7.43;;;3.67;;
40164;SDS011;25882;51.120;17.248;2022-12-29T08:38:10;6.70;;;3.53;;
40164;SDS011;25882;51.120;17.248;2022-12-29T08:40:39;6.25;;;3.70;;
40164;SDS011;25882;51.120;17.248;2022-12-29T08:43:07;6.35;;;3.03;;
40164;SDS011;25882;51.120;17.248;2022-12-29T08:45:34;7.03;;;3.63;;
40164;SDS011;25882;51.120;17.248;2022-12-29T08:48:01;7.78;;;3.47;;
40164;SDS011;25882;51.120;17.248;2022-12-29T08:50:27;7.30;;;3.47;;
40164;SDS011;25882;51.120;17.248;2022-12-29T08:52:53;5.85;;;3.75;;
40164;SDS011;25882;51.120;17.248;2022-12-29T08:55:20;8.32;;;3.83;;
40164;SDS011;25882;51.120;17.248;2022-12-29T08:57:46;9.70;;;4.32;;
40164;SDS011;25882;51.120;17.248;2022-12-29T09:00:15;7.40;;;3.88;;
40164;SDS011;25882;51.120;17.248;2022-12-29T09:02:41;8.30;;;4.57;;
40164;SDS011;25882;51.120;17.248;2022-12-29T09:05:09;7.60;;;3.72;;
40164;SDS011;25882;51.120;17.248;2022-12-29T09:07:36;7.43;;;4.28;;
40164;SDS011;25882;51.120;17.248;2022-12-29T09:10:03;6.13;;;3.58;;
40164;SDS011;25882;51.120;17.248;2022-12-29T09:12:30;11.25;;;4.13;;
40164;SDS011;25882;51.120;17.248;2022-12-29T09:14:56;7.97;;;3.83;;
40164;SDS011;25882;51.120;17.248;2022-12-29T09:17:24;9.13;;;3.83;;
40164;SDS011;25882;51.120;17.248;2022-12-29T09:20:12;5.75;;;3.13;;
40164;SDS011;25882;51.120;17.248;2022-12-29T09:22:40;5.50;;;3.38;;
40164;SDS011;25882;51.120;17.248;2022-12-29T09:25:07;6.72;;;3.30;;
40164;SDS011;25882;51.120;17.248;2022-12-29T09:27:34;6.85;;;3.22;;
40164;SDS011;25882;51.120;17.248;2022-12-29T09:30:01;4.97;;;3.20;;
40164;SDS011;25882;51.120;17.248;2022-12-29T09:32:29;6.45;;;3.28;;
40164;SDS011;25882;51.120;17.248;2022-12-29T09:34:55;4.47;;;2.90;;
40164;SDS011;25882;51.120;17.248;2022-12-29T09:37:21;6.47;;;3.05;;
40164;SDS011;25882;51.120;17.248;2022-12-29T09:39:48;8.05;;;3.30;;
40164;SDS011;25882;51.120;17.248;2022-12-29T09:42:16;6.85;;;3.58;;
40164;SDS011;25882;51.120;17.248;2022-12-29T09:47:18;6.57;;;3.55;;
40164;SDS011;25882;51.120;17.248;2022-12-29T09:49:47;7.75;;;3.95;;
40164;SDS011;25882;51.120;17.248;2022-12-29T09:52:15;5.85;;;3.92;;
40164;SDS011;25882;51.120;17.248;2022-12-29T09:54:48;6.03;;;3.63;;
40164;SDS011;25882;51.120;17.248;2022-12-29T09:59:44;5.35;;;3.13;;
40164;SDS011;25882;51.120;17.248;2022-12-29T10:02:15;5.60;;;3.15;;
40164;SDS011;25882;51.120;17.248;2022-12-29T10:04:52;4.97;;;2.58;;
40164;SDS011;25882;51.120;17.248;2022-12-29T10:07:23;5.13;;;2.45;;
40164;SDS011;25882;51.120;17.248;2022-12-29T10:09:56;6.28;;;2.80;;
40164;SDS011;25882;51.120;17.248;2022-12-29T10:12:29;5.32;;;2.92;;
40164;SDS011;25882;51.120;17.248;2022-12-29T10:15:04;7.53;;;4.20;;
40164;SDS011;25882;51.120;17.248;2022-12-29T10:17:37;8.25;;;3.85;;
40164;SDS011;25882;51.120;17.248;2022-12-29T10:23:05;7.35;;;3.60;;
40164;SDS011;25882;51.120;17.248;2022-12-29T10:29:40;4.93;;;3.22;;
40164;SDS011;25882;51.120;17.248;2022-12-29T10:32:47;7.18;;;4.15;;
40164;SDS011;25882;51.120;17.248;2022-12-29T10:35:18;6.82;;;3.35;;
40164;SDS011;25882;51.120;17.248;2022-12-29T10:37:50;8.35;;;4.15;;
40164;SDS011;25882;51.120;17.248;2022-12-29T10:40:23;8.85;;;3.63;;
40164;SDS011;25882;51.120;17.248;2022-12-29T10:42:52;5.85;;;3.30;;
40164;SDS011;25882;51.120;17.248;2022-12-29T10:45:19;10.05;;;4.18;;
40164;SDS011;25882;51.120;17.248;2022-12-29T10:47:50;6.45;;;3.80;;
40164;SDS011;25882;51.120;17.248;2022-12-29T10:50:19;8.95;;;3.83;;
40164;SDS011;25882;51.120;17.248;2022-12-29T10:52:46;8.25;;;4.07;;
40164;SDS011;25882;51.120;17.248;2022-12-29T10:55:15;8.95;;;3.97;;
40164;SDS011;25882;51.120;17.248;2022-12-29T10:57:44;6.68;;;3.63;;
40164;SDS011;25882;51.120;17.248;2022-12-29T11:00:12;5.35;;;2.90;;
40164;SDS011;25882;51.120;17.248;2022-12-29T11:02:47;7.20;;;3.20;;
40164;SDS011;25882;51.120;17.248;2022-12-29T11:05:31;8.00;;;3.70;;
40164;SDS011;25882;51.120;17.248;2022-12-29T11:08:00;7.28;;;3.60;;
40164;SDS011;25882;51.120;17.248;2022-12-29T11:10:35;7.65;;;4.28;;
40164;SDS011;25882;51.120;17.248;2022-12-29T11:13:05;6.70;;;3.10;;
40164;SDS011;25882;51.120;17.248;2022-12-29T11:15:39;7.50;;;3.15;;
40164;SDS011;25882;51.120;17.248;2022-12-29T11:18:07;7.32;;;3.45;;
40164;SDS011;25882;51.120;17.248;2022-12-29T11:20:44;5.32;;;3.33;;
40164;SDS011;25882;51.120;17.248;2022-12-29T11:23:21;6.85;;;3.70;;
40164;SDS011;25882;51.120;17.248;2022-12-29T11:26:01;7.90;;;3.45;;
40164;SDS011;25882;51.120;17.248;2022-12-29T11:28:39;7.05;;;3.10;;
40164;SDS011;25882;51.120;17.248;2022-12-29T11:31:07;5.10;;;2.65;;
40164;SDS011;25882;51.120;17.248;2022-12-29T11:33:34;5.72;;;2.80;;
40164;SDS011;25882;51.120;17.248;2022-12-29T11:36:02;7.22;;;2.97;;
40164;SDS011;25882;51.120;17.248;2022-12-29T11:38:33;5.88;;;2.88;;
40164;SDS011;25882;51.120;17.248;2022-12-29T11:41:03;4.95;;;2.58;;
40164;SDS011;25882;51.120;17.248;2022-12-29T11:43:31;9.32;;;2.83;;
40164;SDS011;25882;51.120;17.248;2022-12-29T11:46:01;5.35;;;2.70;;
40164;SDS011;25882;51.120;17.248;2022-12-29T11:48:31;5.47;;;2.95;;
40164;SDS011;25882;51.120;17.248;2022-12-29T11:51:04;6.18;;;2.70;;
40164;SDS011;25882;51.120;17.248;2022-12-29T11:53:31;9.38;;;3.00;;
40164;SDS011;25882;51.120;17.248;2022-12-29T11:56:05;9.63;;;3.75;;
40164;SDS011;25882;51.120;17.248;2022-12-29T11:58:34;8.20;;;4.13;;
40164;SDS011;25882;51.120;17.248;2022-12-29T12:01:02;7.03;;;4.20;;
40164;SDS011;25882;51.120;17.248;2022-12-29T12:03:30;7.70;;;4.55;;
40164;SDS011;25882;51.120;17.248;2022-12-29T12:05:58;9.00;;;4.72;;
40164;SDS011;25882;51.120;17.248;2022-12-29T12:08:30;8.10;;;4.45;;
40164;SDS011;25882;51.120;17.248;2022-12-29T12:11:02;8.20;;;3.95;;
40164;SDS011;25882;51.120;17.248;2022-12-29T12:13:34;10.77;;;4.93;;
40164;SDS011;25882;51.120;17.248;2022-12-29T12:16:05;9.43;;;4.40;;
40164;SDS011;25882;51.120;17.248;2022-12-29T12:18:37;9.70;;;4.68;;
40164;SDS011;25882;51.120;17.248;2022-12-29T12:21:08;10.52;;;5.60;;
40164;SDS011;25882;51.120;17.248;2022-12-29T12:23:40;8.65;;;4.80;;
40164;SDS011;25882;51.120;17.248;2022-12-29T12:26:13;8.68;;;4.25;;
40164;SDS011;25882;51.120;17.248;2022-12-29T12:28:51;7.30;;;3.80;;
40164;SDS011;25882;51.120;17.248;2022-12-29T12:31:27;7.45;;;3.83;;
40164;SDS011;25882;51.120;17.248;2022-12-29T12:34:03;5.63;;;3.08;;
40164;SDS011;25882;51.120;17.248;2022-12-29T12:39:31;8.60;;;3.65;;
40164;SDS011;25882;51.120;17.248;2022-12-29T12:42:10;7.00;;;3.63;;
40164;SDS011;25882;51.120;17.248;2022-12-29T12:44:46;9.13;;;3.35;;
40164;SDS011;25882;51.120;17.248;2022-12-29T12:47:24;5.18;;;3.60;;
40164;SDS011;25882;51.120;17.248;2022-12-29T12:50:02;9.13;;;4.03;;
40164;SDS011;25882;51.120;17.248;2022-12-29T12:52:38;7.20;;;3.83;;
40164;SDS011;25882;51.120;17.248;2022-12-29T12:55:23;7.55;;;4.15;;
40164;SDS011;25882;51.120;17.248;2022-12-29T12:58:01;9.55;;;4.72;;
40164;SDS011;25882;51.120;17.248;2022-12-29T13:00:32;7.13;;;4.20;;
40164;SDS011;25882;51.120;17.248;2022-12-29T13:03:04;8.35;;;4.28;;
40164;SDS011;25882;51.120;17.248;2022-12-29T13:05:38;12.73;;;5.30;;
40164;SDS011;25882;51.120;17.248;2022-12-29T13:08:23;8.82;;;4.57;;
40164;SDS011;25882;51.120;17.248;2022-12-29T13:11:13;9.32;;;4.95;;
40164;SDS011;25882;51.120;17.248;2022-12-29T13:13:59;8.45;;;4.80;;
40164;SDS011;25882;51.120;17.248;2022-12-29T13:16:32;10.20;;;4.97;;
40164;SDS011;25882;51.120;17.248;2022-12-29T13:19:03;8.88;;;5.22;;
40164;SDS011;25882;51.120;17.248;2022-12-29T13:21:37;9.52;;;5.40;;
40164;SDS011;25882;51.120;17.248;2022-12-29T13:24:12;9.00;;;4.80;;
40164;SDS011;25882;51.120;17.248;2022-12-29T13:26:42;8.02;;;4.85;;
40164;SDS011;25882;51.120;17.248;2022-12-29T13:29:15;7.75;;;4.72;;
40164;SDS011;25882;51.120;17.248;2022-12-29T13:31:45;9.43;;;5.53;;
40164;SDS011;25882;51.120;17.248;2022-12-29T13:34:18;8.88;;;4.78;;
40164;SDS011;25882;51.120;17.248;2022-12-29T13:36:52;9.23;;;4.65;;
40164;SDS011;25882;51.120;17.248;2022-12-29T13:39:21;7.43;;;4.55;;
40164;SDS011;25882;51.120;17.248;2022-12-29T13:41:50;8.18;;;4.30;;
40164;SDS011;25882;51.120;17.248;2022-12-29T13:44:20;9.95;;;4.43;;
40164;SDS011;25882;51.120;17.248;2022-12-29T13:46:49;10.50;;;5.63;;
40164;SDS011;25882;51.120;17.248;2022-12-29T13:49:17;9.00;;;4.80;;
40164;SDS011;25882;51.120;17.248;2022-12-29T13:51:46;9.85;;;5.07;;
40164;SDS011;25882;51.120;17.248;2022-12-29T13:54:17;8.73;;;4.28;;
40164;SDS011;25882;51.120;17.248;2022-12-29T13:56:49;8.30;;;5.00;;
40164;SDS011;25882;51.120;17.248;2022-12-29T13:59:23;10.23;;;4.75;;
40164;SDS011;25882;51.120;17.248;2022-12-29T14:01:54;8.13;;;4.60;;
40164;SDS011;25882;51.120;17.248;2022-12-29T14:04:24;10.57;;;6.18;;
40164;SDS011;25882;51.120;17.248;2022-12-29T14:06:58;9.15;;;5.40;;
40164;SDS011;25882;51.120;17.248;2022-12-29T14:09:40;8.98;;;4.80;;
40164;SDS011;25882;51.120;17.248;2022-12-29T14:15:22;9.90;;;5.00;;
40164;SDS011;25882;51.120;17.248;2022-12-29T14:18:09;11.73;;;6.00;;
40164;SDS011;25882;51.120;17.248;2022-12-29T14:20:38;9.05;;;5.00;;
40164;SDS011;25882;51.120;17.248;2022-12-29T14:23:15;10.20;;;5.20;;
40164;SDS011;25882;51.120;17.248;2022-12-29T14:25:53;8.38;;;5.00;;
40164;SDS011;25882;51.120;17.248;2022-12-29T14:28:36;13.95;;;5.32;;
40164;SDS011;25882;51.120;17.248;2022-12-29T14:31:07;10.90;;;6.07;;
40164;SDS011;25882;51.120;17.248;2022-12-29T14:34:15;10.02;;;5.32;;
40164;SDS011;25882;51.120;17.248;2022-12-29T14:36:57;11.68;;;5.97;;
40164;SDS011;25882;51.120;17.248;2022-12-29T14:39:29;9.35;;;5.43;;
40164;SDS011;25882;51.120;17.248;2022-12-29T14:42:00;8.52;;;5.13;;
40164;SDS011;25882;51.120;17.248;2022-12-29T14:44:29;11.30;;;5.45;;
40164;SDS011;25882;51.120;17.248;2022-12-29T14:46:58;10.52;;;5.68;;
40164;SDS011;25882;51.120;17.248;2022-12-29T14:49:26;10.05;;;5.70;;
40164;SDS011;25882;51.120;17.248;2022-12-29T14:51:55;9.50;;;5.20;;
40164;SDS011;25882;51.120;17.248;2022-12-29T14:57:27;10.48;;;5.65;;
40164;SDS011;25882;51.120;17.248;2022-12-29T14:59:56;9.48;;;5.40;;
40164;SDS011;25882;51.120;17.248;2022-12-29T15:02:26;11.70;;;6.35;;
40164;SDS011;25882;51.120;17.248;2022-12-29T15:04:59;10.40;;;5.93;;
40164;SDS011;25882;51.120;17.248;2022-12-29T15:07:26;10.60;;;6.28;;
40164;SDS011;25882;51.120;17.248;2022-12-29T15:09:54;13.23;;;6.90;;
40164;SDS011;25882;51.120;17.248;2022-12-29T15:12:26;10.13;;;6.13;;
40164;SDS011;25882;51.120;17.248;2022-12-29T15:14:59;10.07;;;5.90;;
40164;SDS011;25882;51.120;17.248;2022-12-29T15:17:27;9.70;;;5.88;;
40164;SDS011;25882;51.120;17.248;2022-12-29T15:19:55;9.98;;;6.05;;
40164;SDS011;25882;51.120;17.248;2022-12-29T15:22:24;11.65;;;5.72;;
40164;SDS011;25882;51.120;17.248;2022-12-29T15:24:51;13.48;;;6.53;;